createdAt,value
2019-02-02T00:01:47.594Z,162.47
2019-02-02T00:04:17.630Z,155.63
2019-02-02T00:06:46.542Z,160.03
2019-02-02T00:09:15.483Z,170.97
2019-02-02T00:11:44.246Z,157.90
2019-02-02T00:14:13.897Z,156.12
2019-02-02T00:16:42.706Z,162.37
2019-02-02T00:19:11.602Z,158.75
2019-02-02T00:21:40.733Z,157.50
2019-02-02T00:24:09.580Z,153.47
2019-02-02T00:26:38.330Z,160.32
2019-02-02T00:29:09.478Z,144.87
2019-02-02T00:31:38.363Z,147.50
2019-02-02T00:34:07.194Z,166.70
2019-02-02T00:36:36.120Z,152.53
2019-02-02T00:39:08.739Z,150.42
2019-02-02T00:41:37.723Z,147.80
2019-02-02T00:44:06.434Z,140.30
2019-02-02T00:46:35.253Z,150.60
2019-02-02T00:49:06.995Z,146.47
2019-02-02T00:51:56.960Z,138.22
2019-02-02T00:54:25.930Z,141.43
2019-02-02T00:56:54.815Z,140.80
2019-02-02T00:59:23.603Z,141.92
2019-02-02T01:01:52.555Z,138.68
2019-02-02T01:04:21.425Z,141.60
2019-02-02T01:06:50.316Z,144.95
2019-02-02T01:09:22.235Z,136.45
2019-02-02T01:11:50.968Z,140.65
2019-02-02T01:14:20.954Z,135.20
2019-02-02T01:16:49.930Z,131.93
2019-02-02T01:19:19.117Z,130.40
2019-02-02T01:21:48.050Z,129.10
2019-02-02T01:24:16.825Z,128.65
2019-02-02T01:26:45.558Z,124.30
2019-02-02T01:29:14.400Z,125.42
2019-02-02T01:31:43.402Z,123.82
2019-02-02T01:34:12.193Z,123.00
2019-02-02T01:36:41.040Z,117.90
2019-02-02T01:39:09.818Z,115.50
2019-02-02T01:41:38.710Z,121.37
2019-02-02T01:44:07.647Z,111.12
2019-02-02T01:46:36.462Z,120.65
2019-02-02T01:49:05.427Z,106.40
2019-02-02T01:51:34.162Z,114.25
2019-02-02T01:54:03.046Z,101.75
2019-02-02T01:56:31.945Z,113.50
2019-02-02T01:59:02.930Z,110.90
2019-02-02T02:01:31.770Z,116.45
2019-02-02T02:04:00.554Z,104.30
2019-02-02T02:06:29.414Z,108.42
2019-02-02T02:08:59.891Z,115.00
2019-02-02T02:11:29.981Z,124.45
2019-02-02T02:13:58.723Z,125.50
2019-02-02T02:16:27.659Z,127.25
2019-02-02T02:18:57.358Z,122.13
2019-02-02T02:21:27.411Z,131.27
2019-02-02T02:23:56.265Z,112.70
2019-02-02T02:26:25.061Z,123.82
2019-02-02T02:28:53.799Z,127.82
2019-02-02T02:31:22.669Z,128.50
2019-02-02T02:33:51.434Z,132.57
2019-02-02T02:36:20.247Z,136.32
2019-02-02T02:38:49.048Z,128.30
2019-02-02T02:41:17.899Z,137.25
2019-02-02T02:43:46.732Z,127.60
2019-02-02T02:46:15.574Z,125.78
2019-02-02T02:48:44.349Z,134.10
2019-02-02T02:51:13.210Z,124.92
2019-02-02T02:53:41.967Z,137.75
2019-02-02T02:56:10.838Z,127.02
2019-02-02T02:58:41.532Z,128.20
2019-02-02T03:01:10.063Z,133.75
2019-02-02T03:03:38.932Z,121.60
2019-02-02T03:06:07.886Z,128.95
2019-02-02T03:08:36.686Z,130.05
2019-02-02T03:11:05.478Z,134.65
2019-02-02T03:13:34.206Z,109.83
2019-02-02T03:16:04.706Z,110.28
2019-02-02T03:18:36.290Z,115.00
2019-02-02T03:21:05.131Z,120.95
2019-02-02T03:23:34.067Z,115.00
2019-02-02T03:26:02.979Z,115.15
2019-02-02T03:28:31.878Z,112.75
2019-02-02T03:31:00.776Z,120.45
2019-02-02T03:33:29.864Z,119.90
2019-02-02T03:35:58.808Z,109.65
2019-02-02T03:38:27.671Z,131.27
2019-02-02T03:40:56.665Z,113.90
2019-02-02T03:43:25.469Z,121.13
2019-02-02T03:45:54.344Z,128.93
2019-02-02T03:48:23.179Z,126.45
2019-02-02T03:50:52.126Z,115.90
2019-02-02T03:53:20.898Z,116.50
2019-02-02T03:55:49.751Z,121.47
2019-02-02T03:58:18.581Z,116.35
2019-02-02T04:00:47.528Z,118.13
2019-02-02T04:03:16.398Z,124.70
2019-02-02T04:05:45.219Z,135.90
2019-02-02T04:08:14.050Z,129.93
2019-02-02T04:10:42.851Z,130.70
2019-02-02T04:13:11.831Z,136.47
2019-02-02T04:15:43.014Z,147.95
2019-02-02T04:18:11.960Z,146.77
2019-02-02T04:20:42.388Z,149.50
2019-02-02T04:23:12.097Z,145.55
2019-02-02T04:25:42.689Z,154.25
2019-02-02T04:28:11.514Z,147.65
2019-02-02T04:30:40.423Z,166.75
2019-02-02T04:33:09.449Z,164.82
2019-02-02T04:35:38.409Z,153.10
2019-02-02T04:38:07.370Z,168.68
2019-02-02T04:40:36.162Z,170.62
2019-02-02T04:43:05.158Z,170.82
2019-02-02T04:45:35.747Z,187.22
2019-02-02T04:48:05.718Z,173.85
2019-02-02T04:50:34.550Z,178.18
2019-02-02T04:53:03.516Z,164.47
2019-02-02T04:55:33.944Z,159.20
2019-02-02T04:58:03.019Z,168.28
2019-02-02T05:00:33.829Z,172.15
2019-02-02T05:03:02.755Z,166.57
2019-02-02T05:05:31.578Z,171.55
2019-02-02T05:08:00.399Z,166.80
2019-02-02T05:10:29.594Z,169.97
2019-02-02T05:12:58.642Z,165.90
2019-02-02T05:15:27.452Z,163.50
2019-02-02T05:17:58.262Z,161.82
2019-02-02T05:20:29.401Z,163.65
2019-02-02T05:22:58.477Z,155.03
2019-02-02T05:25:27.350Z,153.30
2019-02-02T05:27:56.392Z,155.82
2019-02-02T05:30:28.131Z,161.43
2019-02-02T05:32:56.914Z,148.43
2019-02-02T05:35:25.709Z,150.42
2019-02-02T05:37:54.514Z,134.37
2019-02-02T05:40:24.981Z,140.30
2019-02-02T05:42:53.827Z,138.45
2019-02-02T05:45:24.440Z,136.07
2019-02-02T05:47:54.438Z,138.95
2019-02-02T05:50:24.558Z,133.12
2019-02-02T05:52:53.262Z,131.37
2019-02-02T05:55:25.129Z,122.80
2019-02-02T05:57:54.671Z,120.62
2019-02-02T06:00:38.388Z,131.78
2019-02-02T06:03:07.185Z,133.47
2019-02-02T06:05:35.960Z,129.35
2019-02-02T06:08:04.708Z,134.60
2019-02-02T06:10:35.418Z,128.15
2019-02-02T06:13:04.312Z,133.03
2019-02-02T06:15:33.163Z,141.45
2019-02-02T06:18:05.046Z,125.75
2019-02-02T06:20:42.151Z,133.32
2019-02-02T06:23:10.926Z,131.72
2019-02-02T06:25:39.787Z,147.17
2019-02-02T06:28:08.722Z,131.55
2019-02-02T06:30:37.457Z,144.95
2019-02-02T06:33:07.700Z,130.65
2019-02-02T06:35:36.587Z,123.22
2019-02-02T06:38:05.608Z,127.60
2019-02-02T06:40:34.351Z,123.85
2019-02-02T06:43:03.086Z,127.00
2019-02-02T06:45:33.947Z,125.55
2019-02-02T06:48:02.843Z,132.35
2019-02-02T06:50:31.713Z,127.47
2019-02-02T06:53:00.823Z,128.82
2019-02-02T06:55:29.715Z,124.75
2019-02-02T06:57:58.569Z,130.12
2019-02-02T07:00:27.412Z,122.72
2019-02-02T07:02:56.224Z,127.92
2019-02-02T07:05:25.026Z,121.80
2019-02-02T07:07:53.762Z,124.70
2019-02-02T07:10:24.165Z,128.20
2019-02-02T07:12:52.985Z,134.40
2019-02-02T07:15:24.003Z,129.23
2019-02-02T07:17:52.790Z,117.13
2019-02-02T07:20:21.568Z,121.17
2019-02-02T07:22:54.142Z,121.10
2019-02-02T07:25:22.895Z,129.93
2019-02-02T07:27:51.778Z,132.67
2019-02-02T07:30:28.622Z,131.57
2019-02-02T07:32:54.386Z,129.82
2019-02-02T07:35:24.619Z,114.85
2019-02-02T07:37:53.350Z,120.97
2019-02-02T07:40:22.163Z,132.25
2019-02-02T07:42:51.029Z,131.22
2019-02-02T07:45:25.151Z,132.55
2019-02-02T07:47:56.246Z,124.42
2019-02-02T07:50:25.107Z,141.12
2019-02-02T07:52:53.960Z,139.18
2019-02-02T07:55:22.804Z,128.07
2019-02-02T08:01:04.544Z,125.12
2019-02-02T08:03:33.351Z,130.63
2019-02-02T08:06:02.230Z,136.32
2019-02-02T08:08:32.301Z,124.82
2019-02-02T08:11:01.222Z,134.95
2019-02-02T08:13:29.972Z,139.55
2019-02-02T08:15:58.790Z,135.10
2019-02-02T08:18:27.599Z,121.70
2019-02-02T08:20:56.378Z,128.55
2019-02-02T08:23:25.331Z,129.50
2019-02-02T08:25:54.103Z,126.27
2019-02-02T08:28:23.092Z,133.57
2019-02-02T08:30:52.901Z,118.87
2019-02-02T08:33:21.825Z,134.67
2019-02-02T08:35:50.674Z,121.60
2019-02-02T08:38:19.434Z,122.33
2019-02-02T08:40:48.172Z,113.30
2019-02-02T08:43:16.910Z,110.88
2019-02-02T08:45:45.662Z,127.50
2019-02-02T08:48:14.414Z,125.12
2019-02-02T08:50:43.175Z,111.55
2019-02-02T08:53:12.002Z,107.47
2019-02-02T08:55:40.750Z,108.63
2019-02-02T08:58:09.462Z,107.43
2019-02-02T09:00:38.296Z,109.52
2019-02-02T09:03:07.131Z,105.20
2019-02-02T09:05:35.877Z,110.25
2019-02-02T09:08:04.868Z,112.70
2019-02-02T09:10:33.614Z,115.97
2019-02-02T09:13:02.382Z,112.22
2019-02-02T09:15:31.142Z,107.45
2019-02-02T09:17:59.991Z,114.37
2019-02-02T09:20:28.816Z,116.60
2019-02-02T09:23:05.779Z,119.10
2019-02-02T09:25:28.549Z,113.75
2019-02-02T09:27:58.763Z,117.28
2019-02-02T09:30:32.751Z,111.52
2019-02-02T09:33:02.481Z,119.47
2019-02-02T09:35:32.552Z,118.82
2019-02-02T09:38:01.378Z,116.22
2019-02-02T09:40:30.192Z,109.97
2019-02-02T09:42:59.066Z,101.20
2019-02-02T09:45:28.088Z,109.70
2019-02-02T09:47:58.652Z,103.70
2019-02-02T09:50:27.520Z,98.80
2019-02-02T09:52:56.396Z,108.80
2019-02-02T09:55:25.215Z,113.72
2019-02-02T09:58:01.856Z,103.05
2019-02-02T10:00:31.784Z,104.38
2019-02-02T10:03:00.506Z,113.55
2019-02-02T10:05:30.094Z,109.32
2019-02-02T10:08:01.391Z,101.02
2019-02-02T10:10:31.903Z,101.00
2019-02-02T10:13:00.913Z,98.22
2019-02-02T10:15:29.698Z,85.38
2019-02-02T10:17:58.564Z,89.60
2019-02-02T10:20:31.399Z,95.57
2019-02-02T10:23:00.256Z,90.35
2019-02-02T10:25:30.158Z,89.03
2019-02-02T10:27:59.063Z,94.77
2019-02-02T10:30:37.312Z,96.47
2019-02-02T10:33:06.294Z,83.92
2019-02-02T10:35:35.094Z,79.55
2019-02-02T10:38:03.954Z,82.92
2019-02-02T10:40:32.774Z,72.65
2019-02-02T10:43:01.600Z,78.07
2019-02-02T10:45:30.358Z,77.62
2019-02-02T10:47:59.078Z,76.87
2019-02-02T10:50:27.951Z,74.70
2019-02-02T10:52:56.811Z,68.10
2019-02-02T10:55:25.620Z,72.82
2019-02-02T10:57:54.372Z,71.20
2019-02-02T11:00:25.310Z,79.70
2019-02-02T11:02:54.158Z,73.07
2019-02-02T11:05:24.630Z,66.22
2019-02-02T11:07:54.607Z,71.92
2019-02-02T11:10:27.593Z,66.72
2019-02-02T11:12:56.414Z,69.37
2019-02-02T11:15:25.247Z,76.55
2019-02-02T11:17:54.145Z,73.37
2019-02-02T11:20:28.701Z,66.90
2019-02-02T11:22:57.600Z,64.12
2019-02-02T11:25:28.107Z,62.75
2019-02-02T11:27:57.024Z,65.08
2019-02-02T11:30:25.806Z,62.75
2019-02-02T11:32:54.718Z,62.88
2019-02-02T11:35:23.603Z,69.97
2019-02-02T11:37:52.687Z,73.80
2019-02-02T11:40:24.465Z,66.35
2019-02-02T11:42:53.424Z,58.33
2019-02-02T11:45:24.361Z,69.03
2019-02-02T11:47:53.099Z,63.95
2019-02-02T11:50:24.084Z,54.83
2019-02-02T11:52:52.855Z,53.02
2019-02-02T11:55:21.715Z,55.60
2019-02-02T11:57:50.506Z,51.98
2019-02-02T12:00:22.074Z,55.88
2019-02-02T12:02:50.815Z,57.55
2019-02-02T12:05:19.756Z,58.13
2019-02-02T12:07:48.738Z,51.90
2019-02-02T12:10:18.986Z,51.02
2019-02-02T12:12:47.756Z,52.67
2019-02-02T12:15:17.553Z,53.73
2019-02-02T12:17:46.356Z,58.13
2019-02-02T12:20:16.493Z,52.73
2019-02-02T12:22:45.282Z,48.35
2019-02-02T12:25:14.182Z,45.30
2019-02-02T12:27:44.155Z,46.92
2019-02-02T12:30:15.646Z,47.80
2019-02-02T12:32:44.558Z,46.45
2019-02-02T12:35:15.865Z,49.45
2019-02-02T12:37:44.608Z,49.45
2019-02-02T12:40:13.727Z,46.30
2019-02-02T12:42:42.562Z,48.98
2019-02-02T12:45:17.451Z,53.48
2019-02-02T12:47:46.235Z,46.48
2019-02-02T12:50:15.106Z,38.90
2019-02-02T12:52:43.873Z,42.17
2019-02-02T12:55:12.690Z,40.05
2019-02-02T12:57:41.471Z,40.15
2019-02-02T13:00:13.598Z,39.85
2019-02-02T13:02:42.517Z,32.90
2019-02-02T13:05:11.334Z,35.08
2019-02-02T13:07:42.866Z,32.42
2019-02-02T13:10:16.394Z,27.80
2019-02-02T13:12:45.255Z,28.57
2019-02-02T13:15:14.058Z,30.48
2019-02-02T13:17:42.815Z,30.95
2019-02-02T13:20:11.885Z,33.28
2019-02-02T13:22:40.734Z,31.42
2019-02-02T13:25:11.907Z,34.05
2019-02-02T13:27:40.614Z,30.15
2019-02-02T13:30:13.053Z,31.73
2019-02-02T13:32:49.412Z,49.40
2019-02-02T13:35:13.473Z,30.00
2019-02-02T13:37:42.358Z,31.65
2019-02-02T13:40:14.120Z,34.92
2019-02-02T13:42:42.973Z,30.70
2019-02-02T13:45:12.366Z,27.20
2019-02-02T13:47:41.235Z,25.23
2019-02-02T13:50:13.733Z,30.62
2019-02-02T13:52:46.343Z,28.67
2019-02-02T13:55:15.302Z,24.85
2019-02-02T13:57:44.138Z,24.65
2019-02-02T14:00:15.691Z,28.00
2019-02-02T14:02:44.402Z,26.77
2019-02-02T14:05:14.474Z,24.75
2019-02-02T14:07:43.249Z,25.52
2019-02-02T14:10:19.728Z,33.30
2019-02-02T14:12:48.264Z,28.35
2019-02-02T14:15:19.882Z,28.00
2019-02-02T14:17:48.713Z,29.18
2019-02-02T14:20:19.336Z,33.58
2019-02-02T14:22:48.194Z,32.17
2019-02-02T14:25:17.654Z,31.12
2019-02-02T14:27:46.439Z,34.58
2019-02-02T14:30:18.203Z,35.08
2019-02-02T14:32:47.004Z,32.93
2019-02-02T14:35:16.830Z,33.60
2019-02-02T14:37:45.742Z,35.00
2019-02-02T14:40:15.457Z,36.70
2019-02-02T14:42:44.318Z,37.00
2019-02-02T14:45:15.085Z,30.72
2019-02-02T14:47:43.997Z,35.55
2019-02-02T14:50:14.961Z,34.48
2019-02-02T14:52:43.682Z,32.98
2019-02-02T14:55:14.692Z,32.05
2019-02-02T14:57:43.602Z,34.08
2019-02-02T15:00:17.550Z,33.90
2019-02-02T15:02:46.384Z,36.90
2019-02-02T15:05:15.574Z,36.17
2019-02-02T15:07:44.558Z,40.58
2019-02-02T15:10:13.430Z,39.35
2019-02-02T15:12:42.331Z,39.03
2019-02-02T15:15:11.888Z,41.23
2019-02-02T15:17:40.743Z,36.60
2019-02-02T15:20:13.677Z,38.83
2019-02-02T15:22:42.430Z,35.23
2019-02-02T15:25:11.228Z,32.98
2019-02-02T15:27:41.049Z,34.65
2019-02-02T15:30:11.882Z,36.17
2019-02-02T15:32:40.778Z,36.48
2019-02-02T15:35:09.530Z,33.33
2019-02-02T15:37:38.283Z,35.98
2019-02-02T15:40:07.752Z,34.90
2019-02-02T15:42:36.570Z,37.30
2019-02-02T15:45:08.239Z,40.05
2019-02-02T15:47:41.161Z,33.73
2019-02-02T15:50:11.846Z,33.40
2019-02-02T15:52:40.674Z,31.05
2019-02-02T15:55:12.111Z,34.45
2019-02-02T15:57:41.002Z,32.63
2019-02-02T16:00:14.024Z,34.38
2019-02-02T16:02:42.815Z,27.37
2019-02-02T16:05:12.842Z,26.17
2019-02-02T16:07:43.527Z,26.52
2019-02-02T16:10:15.536Z,29.92
2019-02-02T16:12:45.659Z,26.30
2019-02-02T16:15:15.892Z,30.15
2019-02-02T16:17:44.626Z,30.95
2019-02-02T16:20:18.864Z,28.65
2019-02-02T16:22:47.664Z,28.20
2019-02-02T16:25:16.506Z,31.40
2019-02-02T16:27:45.259Z,38.15
2019-02-02T16:30:16.809Z,35.52
2019-02-02T16:32:46.014Z,33.53
2019-02-02T16:35:14.823Z,36.05
2019-02-02T16:37:45.981Z,37.20
2019-02-02T16:40:16.809Z,37.98
2019-02-02T16:42:45.538Z,38.70
2019-02-02T16:45:16.126Z,40.12
2019-02-02T16:47:44.924Z,40.50
2019-02-02T16:50:15.367Z,39.85
2019-02-02T16:52:44.242Z,44.50
2019-02-02T16:55:13.108Z,41.77
2019-02-02T16:57:41.939Z,41.68
2019-02-02T17:00:18.619Z,46.92
2019-02-02T17:02:47.397Z,46.92
2019-02-02T17:05:16.212Z,48.02
2019-02-02T17:07:46.330Z,47.55
2019-02-02T17:10:20.855Z,52.05
2019-02-02T17:12:49.713Z,50.67
2019-02-02T17:15:18.433Z,47.80
2019-02-02T17:17:47.186Z,50.28
2019-02-02T17:20:18.504Z,50.17
2019-02-02T17:22:47.337Z,48.75
2019-02-02T17:25:17.554Z,51.83
2019-02-02T17:27:47.386Z,50.05
2019-02-02T17:30:18.226Z,52.85
2019-02-02T17:32:47.240Z,55.00
2019-02-02T17:35:16.150Z,48.80
2019-02-02T17:37:45.398Z,53.38
2019-02-02T17:40:16.987Z,57.45
2019-02-02T17:42:47.400Z,56.90
2019-02-02T17:45:17.497Z,51.05
2019-02-02T17:47:46.435Z,60.60
2019-02-02T17:50:17.111Z,58.10
2019-02-02T17:52:45.855Z,62.88
2019-02-02T17:55:14.649Z,54.30
2019-02-02T17:57:43.426Z,54.65
2019-02-02T18:00:17.438Z,58.30
2019-02-02T18:02:46.179Z,53.75
2019-02-02T18:05:14.915Z,49.77
2019-02-02T18:07:43.771Z,52.70
2019-02-02T18:10:14.018Z,49.80
2019-02-02T18:12:42.811Z,47.62
2019-02-02T18:15:12.722Z,37.80
2019-02-02T18:17:43.428Z,36.50
2019-02-02T18:20:13.350Z,35.20
2019-02-02T18:22:44.226Z,36.20
2019-02-02T18:25:13.602Z,29.65
2019-02-02T18:27:42.419Z,33.20
2019-02-02T18:30:14.454Z,28.10
2019-02-02T18:32:43.273Z,33.28
2019-02-02T18:35:12.055Z,29.20
2019-02-02T18:37:40.975Z,28.10
2019-02-02T18:40:11.190Z,27.90
2019-02-02T18:42:39.926Z,30.77
2019-02-02T18:45:09.907Z,27.15
2019-02-02T18:47:38.673Z,28.15
2019-02-02T18:50:10.414Z,33.55
2019-02-02T18:52:39.218Z,31.60
2019-02-02T18:55:13.179Z,30.60
2019-02-02T18:57:41.314Z,32.95
2019-02-02T19:00:13.734Z,38.70
2019-02-02T19:02:45.440Z,39.60
2019-02-02T19:05:14.910Z,35.52
2019-02-02T19:07:43.636Z,41.48
2019-02-02T19:10:15.026Z,42.05
2019-02-02T19:12:43.767Z,48.33
2019-02-02T19:15:12.755Z,41.92
2019-02-02T19:17:41.530Z,43.92
2019-02-02T19:20:13.437Z,40.00
2019-02-02T19:22:42.209Z,45.88
2019-02-02T19:25:10.971Z,43.85
2019-02-02T19:27:45.090Z,45.78
2019-02-02T19:30:17.142Z,48.98
2019-02-02T19:32:47.505Z,53.05
2019-02-02T19:35:16.703Z,51.90
2019-02-02T19:37:45.543Z,48.90
2019-02-02T19:40:14.593Z,53.92
2019-02-02T19:42:46.560Z,51.77
2019-02-02T19:45:17.378Z,51.28
2019-02-02T19:47:46.246Z,43.95
2019-02-02T19:50:17.447Z,50.03
2019-02-02T19:52:46.226Z,49.38
2019-02-02T19:55:15.187Z,46.58
2019-02-02T19:57:44.170Z,47.15
2019-02-02T20:00:22.237Z,47.90
2019-02-02T20:02:51.374Z,39.20
2019-02-02T20:05:28.231Z,47.05
2019-02-02T20:07:50.556Z,47.15
2019-02-02T20:10:19.744Z,44.58
2019-02-02T20:12:48.590Z,46.80
2019-02-02T20:15:19.166Z,45.45
2019-02-02T20:17:47.955Z,51.75
2019-02-02T20:20:18.387Z,44.00
2019-02-02T20:22:47.253Z,44.35
2019-02-02T20:25:16.144Z,50.50
2019-02-02T20:27:44.926Z,43.85
2019-02-02T20:30:16.065Z,46.20
2019-02-02T20:32:44.814Z,47.23
2019-02-02T20:35:13.618Z,52.80
2019-02-02T20:37:42.446Z,52.43
2019-02-02T20:40:13.537Z,47.43
2019-02-02T20:42:42.277Z,52.30
2019-02-02T20:45:13.374Z,56.28
2019-02-02T20:47:42.203Z,53.92
2019-02-02T20:50:13.757Z,54.25
2019-02-02T20:52:47.405Z,62.83
2019-02-02T20:55:18.715Z,58.83
2019-02-02T20:57:47.603Z,68.60
2019-02-02T21:00:19.783Z,61.60
2019-02-02T21:02:48.614Z,67.87
2019-02-02T21:05:17.455Z,61.77
2019-02-02T21:07:46.382Z,75.80
2019-02-02T21:10:17.291Z,73.25
2019-02-02T21:12:46.127Z,81.72
2019-02-02T21:15:14.932Z,75.42
2019-02-02T21:17:43.994Z,84.58
2019-02-02T21:20:15.272Z,82.95
2019-02-02T21:22:44.160Z,79.92
2019-02-02T21:25:13.393Z,79.40
2019-02-02T21:27:42.372Z,78.75
2019-02-02T21:30:16.964Z,77.58
2019-02-02T21:32:46.190Z,79.58
2019-02-02T21:35:15.161Z,76.92
2019-02-02T21:37:51.444Z,77.35
2019-02-02T21:40:24.275Z,77.35
2019-02-02T21:42:53.099Z,77.20
2019-02-02T21:45:23.383Z,72.42
2019-02-02T21:47:52.604Z,75.78
2019-02-02T21:50:22.423Z,80.20
2019-02-02T21:52:51.526Z,77.25
2019-02-02T21:55:24.917Z,82.05
2019-02-02T21:57:53.710Z,85.67
2019-02-02T22:00:34.152Z,79.87
2019-02-02T22:03:03.014Z,89.30
2019-02-02T22:05:31.954Z,93.00
2019-02-02T22:08:00.848Z,96.10
2019-02-02T22:10:29.561Z,87.65
2019-02-02T22:12:58.790Z,96.85
2019-02-02T22:15:27.614Z,97.33
2019-02-02T22:17:58.066Z,94.58
2019-02-02T22:20:26.817Z,107.83
2019-02-02T22:22:55.788Z,102.27
2019-02-02T22:25:26.883Z,100.40
2019-02-02T22:27:55.691Z,107.80
2019-02-02T22:30:30.459Z,114.80
2019-02-02T22:32:59.283Z,100.22
2019-02-02T22:35:28.138Z,99.55
2019-02-02T22:37:57.471Z,105.10
2019-02-02T22:40:26.989Z,102.07
2019-02-02T22:42:55.864Z,97.27
2019-02-02T22:45:24.850Z,90.92
2019-02-02T22:47:54.158Z,88.78
2019-02-02T22:50:24.746Z,89.55
2019-02-02T22:52:53.688Z,80.85
2019-02-02T22:55:22.593Z,81.02
2019-02-02T22:57:54.044Z,68.55
2019-02-02T23:01:09.612Z,65.60
2019-02-02T23:03:47.801Z,60.40
2019-02-02T23:06:38.919Z,61.45
2019-02-02T23:09:57.763Z,58.78
2019-02-02T23:12:38.646Z,54.05
2019-02-02T23:15:46.361Z,52.45
2019-02-02T23:18:15.415Z,51.95
2019-02-02T23:20:46.054Z,52.30
2019-02-02T23:23:15.470Z,46.25
2019-02-02T23:25:47.447Z,51.85
2019-02-02T23:28:16.202Z,45.45
2019-02-02T23:30:46.642Z,46.53
2019-02-02T23:33:15.502Z,47.62
2019-02-02T23:35:44.379Z,51.23
2019-02-02T23:38:13.584Z,49.63
2019-02-02T23:40:43.434Z,51.13
2019-02-02T23:43:15.230Z,52.10
2019-02-02T23:45:48.094Z,50.67
2019-02-02T23:48:16.906Z,50.40
2019-02-02T23:50:46.027Z,52.75
2019-02-02T23:53:14.761Z,55.03
2019-02-02T23:55:43.641Z,49.45
2019-02-02T23:58:14.118Z,53.55
